createdAt,value
2018-05-08T00:01:09.515Z,51.80
2018-05-08T00:03:37.052Z,51.87
2018-05-08T00:06:04.573Z,51.87
2018-05-08T00:08:32.413Z,51.91
2018-05-08T00:10:59.931Z,52.14
2018-05-08T00:13:29.018Z,52.25
2018-05-08T00:15:56.588Z,52.57
2018-05-08T00:18:24.986Z,52.37
2018-05-08T00:20:52.526Z,52.27
2018-05-08T00:23:20.439Z,52.43
2018-05-08T00:25:47.940Z,52.48
2018-05-08T00:28:16.742Z,52.47
2018-05-08T00:30:44.651Z,52.53
2018-05-08T00:33:12.183Z,52.48
2018-05-08T00:35:39.698Z,52.61
2018-05-08T00:38:07.753Z,52.77
2018-05-08T00:40:35.269Z,53.01
2018-05-08T00:43:02.813Z,52.89
2018-05-08T00:45:30.501Z,53.12
2018-05-08T00:47:58.375Z,53.19
2018-05-08T00:50:25.916Z,53.32
2018-05-08T00:52:54.901Z,53.61
2018-05-08T00:55:22.797Z,53.77
2018-05-08T00:57:50.294Z,53.74
2018-05-08T01:00:18.222Z,53.82
2018-05-08T01:02:45.726Z,54.02
2018-05-08T01:05:13.240Z,54.24
2018-05-08T01:07:41.196Z,54.29
2018-05-08T01:10:08.707Z,54.42
2018-05-08T01:12:36.632Z,54.76
2018-05-08T01:15:04.156Z,54.81
2018-05-08T01:17:31.952Z,54.85
2018-05-08T01:19:59.605Z,55.34
2018-05-08T01:22:27.134Z,54.97
2018-05-08T01:24:54.631Z,55.21
2018-05-08T01:27:22.178Z,55.03
2018-05-08T01:29:49.699Z,55.16
2018-05-08T01:32:17.424Z,55.41
2018-05-08T01:34:44.915Z,55.92
2018-05-08T01:37:12.847Z,55.93
2018-05-08T01:39:40.368Z,56.18
2018-05-08T01:42:07.931Z,56.28
2018-05-08T01:44:35.486Z,56.37
2018-05-08T01:47:03.487Z,56.42
2018-05-08T01:49:30.991Z,56.68
2018-05-08T01:51:58.574Z,56.61
2018-05-08T01:54:26.338Z,57.08
2018-05-08T01:56:53.842Z,56.87
2018-05-08T01:59:21.347Z,57.33
2018-05-08T02:01:48.939Z,57.20
2018-05-08T02:04:16.819Z,57.30
2018-05-08T02:06:44.324Z,57.48
2018-05-08T02:09:11.818Z,57.41
2018-05-08T02:11:39.312Z,57.57
2018-05-08T02:14:07.155Z,57.42
2018-05-08T02:16:34.679Z,57.79
2018-05-08T02:19:02.591Z,57.68
2018-05-08T02:21:30.108Z,57.82
2018-05-08T02:23:57.812Z,58.34
2018-05-08T02:26:25.676Z,58.71
2018-05-08T02:28:53.158Z,58.73
2018-05-08T02:31:20.672Z,59.04
2018-05-08T02:33:48.215Z,59.23
2018-05-08T02:36:16.092Z,59.50
2018-05-08T02:38:43.967Z,59.40
2018-05-08T02:41:12.046Z,59.40
2018-05-08T02:43:39.570Z,59.54
2018-05-08T02:46:07.324Z,59.65
2018-05-08T02:48:34.928Z,59.72
2018-05-08T02:51:02.907Z,59.75
2018-05-08T02:53:30.864Z,59.95
2018-05-08T02:55:58.375Z,60.07
2018-05-08T02:58:26.402Z,60.07
2018-05-08T03:00:54.475Z,60.25
2018-05-08T03:03:21.977Z,60.49
2018-05-08T03:05:49.499Z,60.56
2018-05-08T03:08:17.233Z,60.63
2018-05-08T03:10:45.225Z,60.59
2018-05-08T03:13:12.955Z,60.84
2018-05-08T03:15:40.479Z,61.02
2018-05-08T03:18:07.978Z,60.93
2018-05-08T03:20:35.847Z,61.12
2018-05-08T03:23:03.619Z,61.22
2018-05-08T03:25:31.155Z,61.53
2018-05-08T03:27:58.650Z,61.58
2018-05-08T03:30:26.149Z,61.40
2018-05-08T03:32:53.664Z,61.45
2018-05-08T03:35:21.467Z,61.41
2018-05-08T03:37:49.052Z,61.57
2018-05-08T03:40:16.844Z,61.39
2018-05-08T03:42:44.357Z,61.62
2018-05-08T03:45:11.835Z,61.55
2018-05-08T03:47:39.632Z,61.62
2018-05-08T03:50:07.162Z,61.87
2018-05-08T03:52:35.452Z,62.03
2018-05-08T03:55:02.993Z,62.16
2018-05-08T03:57:30.522Z,62.25
2018-05-08T03:59:58.322Z,62.34
2018-05-08T04:02:37.893Z,62.46
2018-05-08T04:05:17.499Z,62.32
2018-05-08T04:07:56.826Z,62.80
2018-05-08T04:10:24.517Z,62.92
2018-05-08T04:12:52.399Z,63.04
2018-05-08T04:15:20.150Z,63.06
2018-05-08T04:17:48.634Z,63.09
2018-05-08T04:20:16.174Z,63.15
2018-05-08T04:22:44.077Z,63.13
2018-05-08T04:25:12.039Z,63.20
2018-05-08T04:27:39.664Z,63.25
2018-05-08T04:30:07.371Z,63.15
2018-05-08T04:32:34.870Z,62.86
2018-05-08T04:35:02.453Z,62.95
2018-05-08T04:37:30.230Z,62.71
2018-05-08T04:39:57.747Z,62.67
2018-05-08T04:42:25.577Z,62.68
2018-05-08T04:44:53.077Z,62.47
2018-05-08T04:47:20.594Z,62.50
2018-05-08T04:49:48.422Z,62.34
2018-05-08T04:52:15.944Z,62.26
2018-05-08T04:54:43.673Z,62.05
2018-05-08T04:57:11.304Z,61.83
2018-05-08T04:59:38.804Z,61.81
2018-05-08T05:02:06.554Z,61.81
2018-05-08T05:04:34.071Z,61.67
2018-05-08T05:07:01.753Z,61.65
2018-05-08T05:09:29.332Z,61.45
2018-05-08T05:11:56.874Z,61.40
2018-05-08T05:14:24.756Z,61.62
2018-05-08T05:16:52.267Z,61.50
2018-05-08T05:19:20.076Z,61.09
2018-05-08T05:21:47.609Z,61.10
2018-05-08T05:24:15.391Z,60.63
2018-05-08T05:26:43.377Z,60.74
2018-05-08T05:29:11.444Z,60.58
2018-05-08T05:31:39.052Z,60.72
2018-05-08T05:34:06.707Z,60.72
2018-05-08T05:36:34.333Z,60.04
2018-05-08T05:39:01.862Z,59.79
2018-05-08T05:41:29.418Z,58.81
2018-05-08T05:43:56.952Z,58.73
2018-05-08T05:46:24.815Z,58.19
2018-05-08T05:48:52.307Z,58.35
2018-05-08T05:51:20.304Z,58.67
2018-05-08T05:53:48.251Z,57.92
2018-05-08T05:56:16.237Z,58.04
2018-05-08T05:58:44.074Z,57.60
2018-05-08T06:01:11.559Z,57.66
2018-05-08T06:03:39.603Z,56.87
2018-05-08T06:06:07.349Z,56.84
2018-05-08T06:08:35.075Z,56.96
2018-05-08T06:11:05.282Z,57.32
2018-05-08T06:13:33.048Z,57.35
2018-05-08T06:16:00.865Z,57.22
2018-05-08T06:18:29.569Z,56.49
2018-05-08T06:20:58.513Z,56.34
2018-05-08T06:23:27.721Z,56.36
2018-05-08T06:25:55.496Z,56.49
2018-05-08T06:28:25.006Z,56.54
2018-05-08T06:30:55.287Z,56.35
2018-05-08T06:33:23.570Z,55.33
2018-05-08T06:35:52.974Z,55.63
2018-05-08T06:38:21.898Z,55.41
2018-05-08T06:40:49.738Z,54.85
2018-05-08T06:43:18.224Z,54.42
2018-05-08T06:45:47.521Z,53.41
2018-05-08T06:48:15.746Z,53.02
2018-05-08T06:50:43.560Z,52.72
2018-05-08T06:53:13.963Z,53.27
2018-05-08T06:55:42.571Z,52.63
2018-05-08T06:58:10.881Z,52.33
2018-05-08T07:00:39.871Z,52.59
2018-05-08T07:03:09.367Z,51.61
2018-05-08T07:05:38.217Z,50.87
2018-05-08T07:08:05.995Z,49.98
2018-05-08T07:10:33.688Z,49.77
2018-05-08T07:13:04.042Z,49.47
2018-05-08T07:15:33.378Z,48.95
2018-05-08T07:18:04.469Z,48.14
2018-05-08T07:20:33.507Z,47.83
2018-05-08T07:23:02.162Z,47.32
2018-05-08T07:25:30.049Z,47.61
2018-05-08T07:27:58.151Z,47.35
2018-05-08T07:30:26.608Z,46.66
2018-05-08T07:32:54.581Z,46.89
2018-05-08T07:35:22.981Z,46.45
2018-05-08T07:37:51.331Z,46.04
2018-05-08T07:40:20.372Z,45.65
2018-05-08T07:42:50.765Z,45.69
2018-05-08T07:45:20.748Z,45.41
2018-05-08T07:47:49.734Z,45.76
2018-05-08T07:50:19.236Z,45.89
2018-05-08T07:52:47.576Z,44.65
2018-05-08T07:55:17.522Z,44.86
2018-05-08T07:57:45.773Z,44.33
2018-05-08T08:00:16.114Z,44.06
2018-05-08T08:02:44.935Z,44.73
2018-05-08T08:05:13.371Z,45.16
2018-05-08T08:07:41.042Z,45.09
2018-05-08T08:10:09.559Z,43.88
2018-05-08T08:12:37.190Z,43.57
2018-05-08T08:15:05.513Z,44.08
2018-05-08T08:17:35.000Z,43.94
2018-05-08T08:20:03.522Z,44.17
2018-05-08T08:22:31.190Z,44.49
2018-05-08T08:24:58.956Z,44.47
2018-05-08T08:27:27.412Z,44.54
2018-05-08T08:29:55.606Z,44.69
2018-05-08T08:32:24.535Z,44.99
2018-05-08T08:34:52.891Z,42.94
2018-05-08T08:37:21.944Z,43.31
2018-05-08T08:39:50.092Z,43.18
2018-05-08T08:42:18.434Z,43.20
2018-05-08T08:44:46.790Z,42.56
2018-05-08T08:47:15.670Z,42.07
2018-05-08T08:49:43.371Z,41.20
2018-05-08T08:52:11.132Z,42.05
2018-05-08T08:54:41.756Z,40.38
2018-05-08T08:57:10.257Z,41.95
2018-05-08T08:59:38.016Z,41.80
2018-05-08T09:02:08.644Z,41.27
2018-05-08T09:04:36.754Z,40.95
2018-05-08T09:07:04.591Z,40.42
2018-05-08T09:09:33.936Z,40.37
2018-05-08T09:12:02.104Z,40.38
2018-05-08T09:14:31.431Z,39.55
2018-05-08T09:17:02.143Z,39.98
2018-05-08T09:19:29.751Z,39.27
2018-05-08T09:21:58.280Z,39.11
2018-05-08T09:24:29.724Z,39.66
2018-05-08T09:26:59.191Z,40.21
2018-05-08T09:29:30.295Z,40.03
2018-05-08T09:31:58.384Z,39.64
2018-05-08T09:34:26.109Z,40.14
2018-05-08T09:36:54.005Z,39.78
2018-05-08T09:39:23.462Z,39.65
2018-05-08T09:41:51.349Z,39.23
2018-05-08T09:44:19.912Z,40.09
2018-05-08T09:46:47.636Z,38.98
2018-05-08T09:49:15.488Z,39.34
2018-05-08T09:51:44.963Z,39.64
2018-05-08T09:54:12.786Z,39.44
2018-05-08T09:56:42.227Z,38.96
2018-05-08T09:59:09.940Z,39.61
2018-05-08T10:01:42.169Z,40.13
2018-05-08T10:04:12.735Z,39.36
2018-05-08T10:06:42.044Z,37.47
2018-05-08T10:09:10.369Z,39.46
2018-05-08T10:11:38.206Z,38.78
2018-05-08T10:14:07.930Z,37.55
2018-05-08T10:16:36.029Z,38.00
2018-05-08T10:19:03.735Z,37.32
2018-05-08T10:21:33.135Z,37.25
2018-05-08T10:24:03.443Z,38.29
2018-05-08T10:26:32.685Z,37.12
2018-05-08T10:29:03.022Z,38.28
2018-05-08T10:31:30.784Z,38.01
2018-05-08T10:33:59.403Z,38.14
2018-05-08T10:36:27.253Z,37.16
2018-05-08T10:38:55.261Z,37.14
2018-05-08T10:41:22.892Z,37.33
2018-05-08T10:43:50.993Z,37.78
2018-05-08T10:46:19.347Z,38.30
2018-05-08T10:48:47.872Z,38.47
2018-05-08T10:51:17.212Z,37.75
2018-05-08T10:53:44.912Z,35.57
2018-05-08T10:56:14.602Z,37.32
2018-05-08T10:58:42.289Z,35.85
2018-05-08T11:01:10.197Z,36.47
2018-05-08T11:03:38.251Z,35.23
2018-05-08T11:06:06.005Z,35.56
2018-05-08T11:08:33.981Z,36.27
2018-05-08T11:11:04.165Z,37.13
2018-05-08T11:13:31.860Z,37.15
2018-05-08T11:16:00.714Z,33.43
2018-05-08T11:18:29.951Z,33.17
2018-05-08T11:20:58.548Z,33.55
2018-05-08T11:23:27.831Z,32.57
2018-05-08T11:26:17.808Z,33.46
2018-05-08T11:28:45.432Z,33.33
2018-05-08T11:31:13.175Z,33.72
2018-05-08T11:33:40.864Z,33.42
2018-05-08T11:36:09.888Z,33.26
2018-05-08T11:38:37.822Z,32.74
2018-05-08T11:41:05.788Z,32.90
2018-05-08T11:43:34.780Z,31.18
2018-05-08T11:46:02.553Z,31.41
2018-05-08T11:48:31.496Z,31.12
2018-05-08T11:51:00.745Z,31.90
2018-05-08T11:53:34.220Z,29.83
2018-05-08T11:56:01.993Z,31.15
2018-05-08T11:58:31.122Z,31.88
2018-05-08T12:01:00.584Z,32.67
2018-05-08T12:03:29.784Z,33.94
2018-05-08T12:05:59.238Z,31.65
2018-05-08T12:08:27.591Z,32.12
2018-05-08T12:10:55.782Z,32.12
2018-05-08T12:13:24.647Z,31.08
2018-05-08T12:15:54.193Z,30.56
2018-05-08T12:18:23.453Z,31.80
2018-05-08T12:20:52.429Z,30.47
2018-05-08T12:23:20.264Z,31.09
2018-05-08T12:25:51.115Z,31.27
2018-05-08T12:28:20.669Z,31.53
2018-05-08T12:30:50.119Z,31.05
2018-05-08T12:33:18.133Z,31.59
2018-05-08T12:35:47.410Z,31.20
2018-05-08T12:38:16.636Z,31.54
2018-05-08T12:40:44.474Z,30.46
2018-05-08T12:43:12.861Z,31.70
2018-05-08T12:45:41.377Z,30.75
2018-05-08T12:48:09.411Z,29.47
2018-05-08T12:50:39.246Z,29.26
2018-05-08T12:53:09.160Z,30.23
2018-05-08T12:55:38.307Z,30.43
2018-05-08T12:58:06.117Z,30.16
2018-05-08T13:00:36.436Z,30.06
2018-05-08T13:03:06.295Z,30.87
2018-05-08T13:05:34.012Z,31.26
2018-05-08T13:08:03.504Z,30.97
2018-05-08T13:10:33.005Z,29.38
2018-05-08T13:13:02.448Z,30.48
2018-05-08T13:15:30.588Z,29.13
2018-05-08T13:18:04.727Z,29.33
2018-05-08T13:20:32.455Z,29.42
2018-05-08T13:22:59.986Z,29.68
2018-05-08T13:25:28.403Z,30.10
2018-05-08T13:27:55.986Z,30.17
2018-05-08T13:30:23.617Z,30.45
2018-05-08T13:32:51.765Z,32.18
2018-05-08T13:35:19.822Z,31.23
2018-05-08T13:37:47.887Z,30.70
2018-05-08T13:40:15.484Z,31.21
2018-05-08T13:42:43.105Z,30.80
2018-05-08T13:45:10.631Z,29.12
2018-05-08T13:47:38.273Z,29.55
2018-05-08T13:50:05.914Z,29.97
2018-05-08T13:52:35.568Z,31.15
2018-05-08T13:55:04.954Z,29.24
2018-05-08T13:57:34.583Z,30.03
2018-05-08T14:00:02.519Z,28.58
2018-05-08T14:02:30.284Z,28.55
2018-05-08T14:04:58.261Z,28.73
2018-05-08T14:07:27.076Z,27.79
2018-05-08T14:09:54.965Z,28.63
2018-05-08T14:12:25.135Z,28.30
2018-05-08T14:14:54.594Z,29.09
2018-05-08T14:17:22.327Z,27.56
2018-05-08T14:19:50.225Z,27.61
2018-05-08T14:22:19.318Z,27.41
2018-05-08T14:24:51.155Z,26.98
2018-05-08T14:27:18.745Z,27.15
2018-05-08T14:29:47.121Z,27.31
2018-05-08T14:32:15.197Z,28.62
2018-05-08T14:34:42.790Z,27.74
2018-05-08T14:37:12.539Z,29.27
2018-05-08T14:39:41.871Z,28.68
2018-05-08T14:42:09.575Z,28.52
2018-05-08T14:44:39.657Z,28.21
2018-05-08T14:47:08.233Z,28.20
2018-05-08T14:49:37.528Z,27.62
2018-05-08T14:52:08.222Z,27.92
2018-05-08T14:54:38.062Z,28.10
2018-05-08T14:57:05.972Z,28.42
2018-05-08T14:59:33.997Z,29.17
2018-05-08T15:02:01.621Z,28.76
2018-05-08T15:04:29.964Z,29.77
2018-05-08T15:06:57.723Z,27.96
2018-05-08T15:09:25.838Z,27.85
2018-05-08T15:11:54.021Z,28.25
2018-05-08T15:14:21.585Z,27.92
2018-05-08T15:16:49.645Z,27.52
2018-05-08T15:19:17.728Z,27.37
2018-05-08T15:21:45.708Z,26.42
2018-05-08T15:24:15.138Z,26.90
2018-05-08T15:26:43.054Z,27.37
2018-05-08T15:29:11.169Z,26.46
2018-05-08T15:31:38.779Z,27.16
2018-05-08T15:34:06.714Z,26.67
2018-05-08T15:36:36.474Z,27.34
2018-05-08T15:39:04.391Z,27.43
2018-05-08T15:41:32.191Z,27.21
2018-05-08T15:44:02.675Z,28.25
2018-05-08T15:46:31.014Z,28.22
2018-05-08T15:48:58.705Z,28.70
2018-05-08T15:51:28.161Z,27.90
2018-05-08T15:53:56.869Z,28.22
2018-05-08T15:56:25.029Z,29.25
2018-05-08T15:58:52.628Z,29.37
2018-05-08T16:01:20.328Z,29.41
2018-05-08T16:03:48.424Z,29.74
2018-05-08T16:06:16.369Z,29.30
2018-05-08T16:08:43.940Z,29.52
2018-05-08T16:11:12.060Z,29.59
2018-05-08T16:13:40.024Z,30.79
2018-05-08T16:16:08.180Z,31.57
2018-05-08T16:18:35.826Z,31.63
2018-05-08T16:21:03.473Z,32.78
2018-05-08T16:23:31.118Z,32.81
2018-05-08T16:25:59.227Z,32.67
2018-05-08T16:28:28.386Z,32.95
2018-05-08T16:30:56.967Z,33.28
2018-05-08T16:33:24.596Z,34.07
2018-05-08T16:35:52.748Z,34.13
2018-05-08T16:38:20.321Z,34.49
2018-05-08T16:40:47.892Z,34.56
2018-05-08T16:43:15.886Z,35.73
2018-05-08T16:45:43.580Z,36.05
2018-05-08T16:48:14.639Z,36.21
2018-05-08T16:50:42.476Z,36.78
2018-05-08T16:53:10.956Z,37.42
2018-05-08T16:55:40.428Z,38.24
2018-05-08T16:58:10.767Z,38.51
2018-05-08T17:00:38.600Z,41.41
2018-05-08T17:03:06.207Z,42.59
2018-05-08T17:05:33.753Z,41.28
2018-05-08T17:08:01.312Z,41.44
2018-05-08T17:10:28.980Z,41.71
2018-05-08T17:12:56.814Z,40.79
2018-05-08T17:15:25.071Z,40.69
2018-05-08T17:17:52.635Z,40.62
2018-05-08T17:20:20.646Z,40.47
2018-05-08T17:22:48.633Z,40.17
2018-05-08T17:25:16.253Z,40.26
2018-05-08T17:27:43.919Z,40.42
2018-05-08T17:30:11.469Z,40.73
2018-05-08T17:32:39.151Z,41.30
2018-05-08T17:35:06.955Z,40.86
2018-05-08T17:37:35.032Z,40.71
2018-05-08T17:40:02.775Z,41.27
2018-05-08T17:42:34.646Z,41.48
2018-05-08T17:45:02.162Z,40.82
2018-05-08T17:47:29.856Z,40.97
2018-05-08T17:49:58.323Z,40.95
2018-05-08T17:52:25.890Z,40.82
2018-05-08T17:54:53.497Z,40.99
2018-05-08T17:57:21.630Z,41.17
2018-05-08T17:59:50.096Z,41.36
2018-05-08T18:02:18.644Z,41.64
2018-05-08T18:04:46.637Z,41.58
2018-05-08T18:07:16.183Z,41.65
2018-05-08T18:09:46.751Z,42.08
2018-05-08T18:12:14.366Z,42.14
2018-05-08T18:14:42.359Z,42.33
2018-05-08T18:17:09.944Z,42.91
2018-05-08T18:19:39.094Z,43.23
2018-05-08T18:22:09.328Z,43.74
2018-05-08T18:24:37.032Z,44.07
2018-05-08T18:27:04.758Z,44.43
2018-05-08T18:29:32.666Z,44.79
2018-05-08T18:32:00.440Z,44.83
2018-05-08T18:34:30.988Z,45.70
2018-05-08T18:36:58.608Z,45.29
2018-05-08T18:39:26.556Z,46.14
2018-05-08T18:41:54.214Z,45.55
2018-05-08T18:44:21.838Z,45.95
2018-05-08T18:46:49.693Z,45.96
2018-05-08T18:59:07.364Z,46.68
2018-05-08T19:01:35.352Z,46.87
2018-05-08T19:04:03.294Z,47.06
2018-05-08T19:06:32.652Z,47.13
2018-05-08T19:09:00.514Z,47.10
2018-05-08T19:11:34.100Z,47.60
2018-05-08T19:14:01.933Z,47.55
2018-05-08T19:16:29.491Z,47.57
2018-05-08T19:19:04.208Z,48.00
2018-05-08T19:21:34.562Z,47.78
2018-05-08T19:24:07.735Z,48.01
2018-05-08T19:26:35.361Z,48.14
2018-05-08T19:29:08.650Z,48.15
2018-05-08T19:32:21.630Z,48.45
2018-05-08T19:34:54.869Z,48.37
2018-05-08T19:37:28.430Z,48.69
2018-05-08T19:39:56.332Z,48.84
2018-05-08T19:42:23.849Z,49.07
2018-05-08T19:44:51.382Z,49.30
2018-05-08T19:47:19.048Z,49.67
2018-05-08T19:49:46.874Z,49.64
2018-05-08T19:52:14.391Z,50.42
2018-05-08T19:54:42.196Z,50.99
2018-05-08T19:57:09.777Z,51.17
2018-05-08T19:59:37.414Z,50.74
2018-05-08T20:02:05.197Z,50.89
2018-05-08T20:04:32.704Z,51.00
2018-05-08T20:07:00.253Z,51.14
2018-05-08T20:09:27.954Z,52.62
2018-05-08T20:11:55.617Z,53.00
2018-05-08T20:14:23.182Z,52.79
2018-05-08T20:16:50.720Z,53.38
2018-05-08T20:19:18.708Z,52.94
2018-05-08T20:21:46.811Z,53.95
2018-05-08T20:24:14.767Z,54.08
2018-05-08T20:26:42.273Z,53.55
2018-05-08T20:29:10.205Z,52.88
2018-05-08T20:31:37.996Z,53.59
2018-05-08T20:34:05.511Z,53.92
2018-05-08T20:36:33.035Z,53.97
2018-05-08T20:39:00.578Z,54.19
2018-05-08T20:41:28.519Z,54.07
2018-05-08T20:43:56.149Z,53.85
2018-05-08T20:46:23.734Z,53.92
2018-05-08T20:48:51.237Z,53.92
2018-05-08T20:51:18.819Z,54.02
2018-05-08T20:53:46.513Z,54.61
2018-05-08T20:56:14.068Z,54.66
2018-05-08T20:58:41.588Z,54.37
2018-05-08T21:01:09.288Z,54.48
2018-05-08T21:03:37.065Z,54.84
2018-05-08T21:06:04.567Z,54.91
2018-05-08T21:08:32.246Z,54.97
2018-05-08T21:10:59.798Z,55.34
2018-05-08T21:13:27.648Z,55.56
2018-05-08T21:15:55.152Z,55.64
2018-05-08T21:18:22.693Z,55.77
2018-05-08T21:20:50.318Z,55.78
2018-05-08T21:23:18.338Z,55.94
2018-05-08T21:25:46.218Z,55.61
2018-05-08T21:31:17.642Z,56.13
2018-05-08T21:33:45.599Z,56.16
2018-05-08T21:36:13.934Z,55.96
2018-05-08T21:38:41.807Z,55.98
2018-05-08T21:41:09.331Z,55.91
2018-05-08T21:43:36.851Z,55.78
2018-05-08T21:46:04.356Z,55.75
2018-05-08T21:48:31.872Z,55.74
2018-05-08T21:50:59.386Z,55.85
2018-05-08T21:53:27.166Z,56.06
2018-05-08T21:55:54.920Z,56.06
2018-05-08T21:58:22.887Z,56.28
2018-05-08T22:00:50.760Z,56.24
2018-05-08T22:03:18.427Z,56.29
2018-05-08T22:05:45.955Z,56.60
2018-05-08T22:08:14.784Z,56.55
2018-05-08T22:10:42.572Z,56.55
2018-05-08T22:13:10.402Z,56.50
2018-05-08T22:15:38.263Z,56.36
2018-05-08T22:18:06.000Z,56.41
2018-05-08T22:20:33.507Z,56.51
2018-05-08T22:23:01.115Z,56.59
2018-05-08T22:25:28.621Z,56.60
2018-05-08T22:27:56.142Z,56.56
2018-05-08T22:30:23.637Z,56.81
2018-05-08T22:32:51.144Z,57.07
2018-05-08T22:35:19.053Z,56.96
2018-05-08T22:37:47.016Z,57.18
2018-05-08T22:40:14.971Z,57.41
2018-05-08T22:42:42.855Z,57.85
2018-05-08T22:45:10.382Z,57.92
2018-05-08T22:47:38.282Z,58.16
2018-05-08T22:50:06.253Z,58.36
2018-05-08T22:52:34.109Z,58.55
2018-05-08T22:55:02.265Z,58.64
2018-05-08T22:57:29.781Z,58.90
2018-05-08T22:59:57.324Z,59.09
2018-05-08T23:02:25.503Z,59.21
2018-05-08T23:04:53.029Z,59.14
2018-05-08T23:07:20.553Z,59.49
2018-05-08T23:09:48.046Z,59.41
2018-05-08T23:12:15.555Z,59.47
2018-05-08T23:14:43.422Z,59.15
2018-05-08T23:17:11.100Z,59.55
2018-05-08T23:19:38.909Z,59.77
2018-05-08T23:22:06.921Z,59.73
2018-05-08T23:24:34.501Z,60.07
2018-05-08T23:27:02.237Z,60.05
2018-05-08T23:29:29.757Z,60.26
2018-05-08T23:31:57.272Z,60.42
2018-05-08T23:34:24.754Z,60.34
2018-05-08T23:36:52.397Z,60.99
2018-05-08T23:39:20.394Z,60.40
2018-05-08T23:41:48.276Z,60.46
2018-05-08T23:44:16.510Z,60.25
2018-05-08T23:46:44.071Z,60.88
2018-05-08T23:49:11.672Z,60.71
2018-05-08T23:51:39.627Z,60.43
2018-05-08T23:54:07.531Z,60.74
2018-05-08T23:56:35.025Z,60.89
2018-05-08T23:59:02.624Z,61.25
